sensor_id;sensor_type;location;lat;lon;timestamp;temperature;humidity
20534;DHT22;12929;56.822;26.056;2023-11-21T00:00:46;-5.70;99.90
20534;DHT22;12929;56.822;26.056;2023-11-21T00:03:13;-5.70;99.90
20534;DHT22;12929;56.822;26.056;2023-11-21T00:05:42;-5.70;99.90
20534;DHT22;12929;56.822;26.056;2023-11-21T00:08:10;-5.70;99.90
20534;DHT22;12929;56.822;26.056;2023-11-21T00:10:39;-5.70;99.90
20534;DHT22;12929;56.822;26.056;2023-11-21T00:13:06;-5.70;99.90
20534;DHT22;12929;56.822;26.056;2023-11-21T00:15:35;-5.70;99.90
20534;DHT22;12929;56.822;26.056;2023-11-21T00:18:02;-5.60;99.90
20534;DHT22;12929;56.822;26.056;2023-11-21T00:20:30;-5.60;99.90
20534;DHT22;12929;56.822;26.056;2023-11-21T00:22:58;-5.70;99.90
20534;DHT22;12929;56.822;26.056;2023-11-21T00:25:26;-5.90;99.90
20534;DHT22;12929;56.822;26.056;2023-11-21T00:27:54;-6.10;99.90
20534;DHT22;12929;56.822;26.056;2023-11-21T00:30:22;-5.90;99.90
20534;DHT22;12929;56.822;26.056;2023-11-21T00:32:49;-5.90;99.90
20534;DHT22;12929;56.822;26.056;2023-11-21T00:35:17;-5.90;99.90
20534;DHT22;12929;56.822;26.056;2023-11-21T00:37:51;-6.00;99.90
20534;DHT22;12929;56.822;26.056;2023-11-21T00:40:19;-6.10;99.90
20534;DHT22;12929;56.822;26.056;2023-11-21T00:42:48;-6.00;99.90
20534;DHT22;12929;56.822;26.056;2023-11-21T00:45:16;-6.00;99.90
20534;DHT22;12929;56.822;26.056;2023-11-21T00:47:44;-6.00;99.90
20534;DHT22;12929;56.822;26.056;2023-11-21T00:50:11;-6.10;99.90
20534;DHT22;12929;56.822;26.056;2023-11-21T00:52:39;-6.20;99.90
20534;DHT22;12929;56.822;26.056;2023-11-21T00:55:07;-6.20;99.90
20534;DHT22;12929;56.822;26.056;2023-11-21T00:57:36;-6.20;99.90
20534;DHT22;12929;56.822;26.056;2023-11-21T01:00:05;-6.20;99.90
20534;DHT22;12929;56.822;26.056;2023-11-21T01:02:44;-6.10;99.90
20534;DHT22;12929;56.822;26.056;2023-11-21T01:05:12;-6.20;99.90
20534;DHT22;12929;56.822;26.056;2023-11-21T01:07:40;-6.20;99.90
20534;DHT22;12929;56.822;26.056;2023-11-21T01:10:08;-6.30;99.90
20534;DHT22;12929;56.822;26.056;2023-11-21T01:12:38;-6.30;99.90
20534;DHT22;12929;56.822;26.056;2023-11-21T01:15:06;-6.40;99.90
20534;DHT22;12929;56.822;26.056;2023-11-21T01:17:39;-6.80;99.90
20534;DHT22;12929;56.822;26.056;2023-11-21T01:20:08;-6.70;99.90
20534;DHT22;12929;56.822;26.056;2023-11-21T01:22:41;-6.70;99.90
20534;DHT22;12929;56.822;26.056;2023-11-21T01:25:09;-6.70;99.90
20534;DHT22;12929;56.822;26.056;2023-11-21T01:27:38;-6.60;99.90
20534;DHT22;12929;56.822;26.056;2023-11-21T01:30:06;-6.50;99.90
20534;DHT22;12929;56.822;26.056;2023-11-21T01:32:36;-6.50;99.90
20534;DHT22;12929;56.822;26.056;2023-11-21T01:35:04;-6.60;99.90
20534;DHT22;12929;56.822;26.056;2023-11-21T01:37:33;-6.50;99.90
20534;DHT22;12929;56.822;26.056;2023-11-21T01:40:01;-6.50;99.90
20534;DHT22;12929;56.822;26.056;2023-11-21T01:42:30;-6.60;99.90
20534;DHT22;12929;56.822;26.056;2023-11-21T01:44:58;-6.60;99.90
20534;DHT22;12929;56.822;26.056;2023-11-21T01:47:25;-6.60;99.90
20534;DHT22;12929;56.822;26.056;2023-11-21T01:49:53;-6.70;99.90
20534;DHT22;12929;56.822;26.056;2023-11-21T01:52:21;-6.80;99.90
20534;DHT22;12929;56.822;26.056;2023-11-21T01:54:49;-6.60;99.90
20534;DHT22;12929;56.822;26.056;2023-11-21T01:57:18;-6.70;99.90
20534;DHT22;12929;56.822;26.056;2023-11-21T01:59:47;-6.80;99.90
20534;DHT22;12929;56.822;26.056;2023-11-21T02:02:16;-6.70;99.90
20534;DHT22;12929;56.822;26.056;2023-11-21T02:04:45;-6.80;99.90
20534;DHT22;12929;56.822;26.056;2023-11-21T02:07:12;-6.80;99.90
20534;DHT22;12929;56.822;26.056;2023-11-21T02:09:40;-6.90;99.90
20534;DHT22;12929;56.822;26.056;2023-11-21T02:12:09;-7.10;99.90
20534;DHT22;12929;56.822;26.056;2023-11-21T02:14:38;-7.20;99.90
20534;DHT22;12929;56.822;26.056;2023-11-21T02:17:06;-7.10;99.90
20534;DHT22;12929;56.822;26.056;2023-11-21T02:19:35;-6.90;99.90
20534;DHT22;12929;56.822;26.056;2023-11-21T02:22:03;-6.80;99.90
20534;DHT22;12929;56.822;26.056;2023-11-21T02:24:33;-6.70;99.90
20534;DHT22;12929;56.822;26.056;2023-11-21T02:27:01;-6.80;99.90
20534;DHT22;12929;56.822;26.056;2023-11-21T02:29:29;-6.80;99.90
20534;DHT22;12929;56.822;26.056;2023-11-21T02:31:57;-6.80;99.90
20534;DHT22;12929;56.822;26.056;2023-11-21T02:34:25;-6.90;99.90
20534;DHT22;12929;56.822;26.056;2023-11-21T02:36:53;-7.10;99.90
20534;DHT22;12929;56.822;26.056;2023-11-21T02:39:21;-7.00;99.90
20534;DHT22;12929;56.822;26.056;2023-11-21T02:41:52;-6.80;99.90
20534;DHT22;12929;56.822;26.056;2023-11-21T02:44:19;-6.60;99.90
20534;DHT22;12929;56.822;26.056;2023-11-21T02:46:47;-6.70;99.90
20534;DHT22;12929;56.822;26.056;2023-11-21T02:49:15;-6.70;99.90
20534;DHT22;12929;56.822;26.056;2023-11-21T02:51:43;-6.70;99.90
20534;DHT22;12929;56.822;26.056;2023-11-21T02:54:11;-6.80;99.90
20534;DHT22;12929;56.822;26.056;2023-11-21T02:56:39;-6.80;99.90
20534;DHT22;12929;56.822;26.056;2023-11-21T02:59:07;-6.70;99.90
20534;DHT22;12929;56.822;26.056;2023-11-21T03:01:34;-6.60;99.90
20534;DHT22;12929;56.822;26.056;2023-11-21T03:04:02;-6.70;99.90
20534;DHT22;12929;56.822;26.056;2023-11-21T03:06:30;-6.60;99.90
20534;DHT22;12929;56.822;26.056;2023-11-21T03:08:58;-6.50;99.90
20534;DHT22;12929;56.822;26.056;2023-11-21T03:11:26;-6.60;99.90
20534;DHT22;12929;56.822;26.056;2023-11-21T03:13:53;-6.60;99.90
20534;DHT22;12929;56.822;26.056;2023-11-21T03:16:21;-6.50;99.90
20534;DHT22;12929;56.822;26.056;2023-11-21T03:18:49;-6.50;99.90
20534;DHT22;12929;56.822;26.056;2023-11-21T03:21:16;-6.40;99.90
20534;DHT22;12929;56.822;26.056;2023-11-21T03:23:44;-6.40;99.90
20534;DHT22;12929;56.822;26.056;2023-11-21T03:26:12;-6.30;99.90
20534;DHT22;12929;56.822;26.056;2023-11-21T03:28:40;-6.40;99.90
20534;DHT22;12929;56.822;26.056;2023-11-21T03:31:08;-6.30;99.90
20534;DHT22;12929;56.822;26.056;2023-11-21T03:33:38;-6.40;99.90
20534;DHT22;12929;56.822;26.056;2023-11-21T03:36:06;-6.30;99.90
20534;DHT22;12929;56.822;26.056;2023-11-21T03:38:35;-6.30;99.90
20534;DHT22;12929;56.822;26.056;2023-11-21T03:41:03;-6.20;99.90
20534;DHT22;12929;56.822;26.056;2023-11-21T03:43:32;-6.20;99.90
20534;DHT22;12929;56.822;26.056;2023-11-21T03:45:59;-6.30;99.90
20534;DHT22;12929;56.822;26.056;2023-11-21T03:48:27;-6.30;99.90
20534;DHT22;12929;56.822;26.056;2023-11-21T03:50:55;-6.20;99.90
20534;DHT22;12929;56.822;26.056;2023-11-21T03:53:22;-6.30;99.90
20534;DHT22;12929;56.822;26.056;2023-11-21T03:55:50;-6.30;99.90
20534;DHT22;12929;56.822;26.056;2023-11-21T03:58:18;-6.20;99.90
20534;DHT22;12929;56.822;26.056;2023-11-21T04:00:47;-6.20;99.90
20534;DHT22;12929;56.822;26.056;2023-11-21T04:03:16;-6.20;99.90
20534;DHT22;12929;56.822;26.056;2023-11-21T04:05:44;-6.10;99.90
20534;DHT22;12929;56.822;26.056;2023-11-21T04:08:13;-6.10;99.90
20534;DHT22;12929;56.822;26.056;2023-11-21T04:10:40;-6.30;99.90
20534;DHT22;12929;56.822;26.056;2023-11-21T04:13:09;-6.30;99.90
20534;DHT22;12929;56.822;26.056;2023-11-21T04:15:37;-6.40;99.90
20534;DHT22;12929;56.822;26.056;2023-11-21T04:18:05;-6.20;99.90
20534;DHT22;12929;56.822;26.056;2023-11-21T04:20:33;-6.30;99.90
20534;DHT22;12929;56.822;26.056;2023-11-21T04:23:00;-6.20;99.90
20534;DHT22;12929;56.822;26.056;2023-11-21T04:25:28;-6.00;99.90
20534;DHT22;12929;56.822;26.056;2023-11-21T04:27:56;-6.10;99.90
20534;DHT22;12929;56.822;26.056;2023-11-21T04:30:23;-6.10;99.90
20534;DHT22;12929;56.822;26.056;2023-11-21T04:32:51;-6.00;99.90
20534;DHT22;12929;56.822;26.056;2023-11-21T04:35:19;-6.00;99.90
20534;DHT22;12929;56.822;26.056;2023-11-21T04:37:46;-6.00;99.90
20534;DHT22;12929;56.822;26.056;2023-11-21T04:40:15;-6.00;99.90
20534;DHT22;12929;56.822;26.056;2023-11-21T04:42:42;-6.00;99.90
20534;DHT22;12929;56.822;26.056;2023-11-21T04:45:10;-6.00;99.90
20534;DHT22;12929;56.822;26.056;2023-11-21T04:47:40;-5.90;99.90
20534;DHT22;12929;56.822;26.056;2023-11-21T04:50:08;-5.90;99.90
20534;DHT22;12929;56.822;26.056;2023-11-21T04:52:35;-5.90;99.90
20534;DHT22;12929;56.822;26.056;2023-11-21T04:55:03;-6.10;99.90
20534;DHT22;12929;56.822;26.056;2023-11-21T04:57:31;-6.10;99.90
20534;DHT22;12929;56.822;26.056;2023-11-21T04:59:59;-6.00;99.90
20534;DHT22;12929;56.822;26.056;2023-11-21T05:02:26;-6.00;99.90
20534;DHT22;12929;56.822;26.056;2023-11-21T05:05:02;-6.10;99.90
20534;DHT22;12929;56.822;26.056;2023-11-21T05:07:33;-6.00;99.90
20534;DHT22;12929;56.822;26.056;2023-11-21T05:10:05;-6.00;99.90
20534;DHT22;12929;56.822;26.056;2023-11-21T05:12:36;-6.00;99.90
20534;DHT22;12929;56.822;26.056;2023-11-21T05:15:05;-6.10;99.90
20534;DHT22;12929;56.822;26.056;2023-11-21T05:17:42;-6.20;99.90
20534;DHT22;12929;56.822;26.056;2023-11-21T05:20:12;-6.30;99.90
20534;DHT22;12929;56.822;26.056;2023-11-21T05:22:41;-6.40;99.90
20534;DHT22;12929;56.822;26.056;2023-11-21T05:25:09;-6.30;99.90
20534;DHT22;12929;56.822;26.056;2023-11-21T05:27:38;-6.30;99.90
20534;DHT22;12929;56.822;26.056;2023-11-21T05:30:07;-6.30;99.90
20534;DHT22;12929;56.822;26.056;2023-11-21T05:32:39;-6.20;99.90
20534;DHT22;12929;56.822;26.056;2023-11-21T05:35:07;-6.10;99.90
20534;DHT22;12929;56.822;26.056;2023-11-21T05:37:39;-6.10;99.90
20534;DHT22;12929;56.822;26.056;2023-11-21T05:40:08;-6.20;99.90
20534;DHT22;12929;56.822;26.056;2023-11-21T05:42:36;-6.10;99.90
20534;DHT22;12929;56.822;26.056;2023-11-21T05:45:05;-6.20;99.90
20534;DHT22;12929;56.822;26.056;2023-11-21T05:47:41;-6.20;99.90
20534;DHT22;12929;56.822;26.056;2023-11-21T05:50:10;-6.20;99.90
20534;DHT22;12929;56.822;26.056;2023-11-21T05:52:40;-6.10;99.90
20534;DHT22;12929;56.822;26.056;2023-11-21T05:55:08;-6.10;99.90
20534;DHT22;12929;56.822;26.056;2023-11-21T05:57:41;-6.10;99.90
20534;DHT22;12929;56.822;26.056;2023-11-21T06:00:13;-6.10;99.90
20534;DHT22;12929;56.822;26.056;2023-11-21T06:02:53;-6.00;99.90
20534;DHT22;12929;56.822;26.056;2023-11-21T06:05:23;-6.10;99.90
20534;DHT22;12929;56.822;26.056;2023-11-21T06:07:53;-6.20;99.90
20534;DHT22;12929;56.822;26.056;2023-11-21T06:10:22;-6.40;99.90
20534;DHT22;12929;56.822;26.056;2023-11-21T06:12:52;-6.50;99.90
20534;DHT22;12929;56.822;26.056;2023-11-21T06:15:21;-6.50;99.90
20534;DHT22;12929;56.822;26.056;2023-11-21T06:17:51;-6.30;99.90
20534;DHT22;12929;56.822;26.056;2023-11-21T06:20:22;-6.10;99.90
20534;DHT22;12929;56.822;26.056;2023-11-21T06:22:50;-6.00;99.90
20534;DHT22;12929;56.822;26.056;2023-11-21T06:25:18;-6.00;99.90
20534;DHT22;12929;56.822;26.056;2023-11-21T06:27:47;-6.00;99.90
20534;DHT22;12929;56.822;26.056;2023-11-21T06:30:15;-5.90;99.90
20534;DHT22;12929;56.822;26.056;2023-11-21T06:32:43;-5.90;99.90
20534;DHT22;12929;56.822;26.056;2023-11-21T06:35:15;-6.00;99.90
20534;DHT22;12929;56.822;26.056;2023-11-21T06:37:44;-6.00;99.90
20534;DHT22;12929;56.822;26.056;2023-11-21T06:40:17;-6.10;99.90
20534;DHT22;12929;56.822;26.056;2023-11-21T06:42:49;-6.00;99.90
20534;DHT22;12929;56.822;26.056;2023-11-21T06:45:18;-6.00;99.90
20534;DHT22;12929;56.822;26.056;2023-11-21T06:47:45;-6.10;99.90
20534;DHT22;12929;56.822;26.056;2023-11-21T06:50:13;-6.20;99.90
20534;DHT22;12929;56.822;26.056;2023-11-21T06:52:41;-6.00;99.90
20534;DHT22;12929;56.822;26.056;2023-11-21T06:55:09;-6.00;99.90
20534;DHT22;12929;56.822;26.056;2023-11-21T06:57:37;-6.10;99.90
20534;DHT22;12929;56.822;26.056;2023-11-21T07:00:06;-6.20;99.90
20534;DHT22;12929;56.822;26.056;2023-11-21T07:02:37;-6.30;99.90
20534;DHT22;12929;56.822;26.056;2023-11-21T07:05:06;-6.30;99.90
20534;DHT22;12929;56.822;26.056;2023-11-21T07:07:33;-6.20;99.90
20534;DHT22;12929;56.822;26.056;2023-11-21T07:10:03;-6.10;99.90
20534;DHT22;12929;56.822;26.056;2023-11-21T07:12:33;-6.20;99.90
20534;DHT22;12929;56.822;26.056;2023-11-21T07:15:02;-6.10;99.90
20534;DHT22;12929;56.822;26.056;2023-11-21T07:17:30;-6.10;99.90
20534;DHT22;12929;56.822;26.056;2023-11-21T07:19:58;-6.20;99.90
20534;DHT22;12929;56.822;26.056;2023-11-21T07:22:26;-6.30;99.90
20534;DHT22;12929;56.822;26.056;2023-11-21T07:24:54;-6.40;99.90
20534;DHT22;12929;56.822;26.056;2023-11-21T07:27:23;-6.40;99.90
20534;DHT22;12929;56.822;26.056;2023-11-21T07:29:51;-6.30;99.90
20534;DHT22;12929;56.822;26.056;2023-11-21T07:32:19;-6.30;99.90
20534;DHT22;12929;56.822;26.056;2023-11-21T07:34:46;-6.20;99.90
20534;DHT22;12929;56.822;26.056;2023-11-21T07:37:14;-6.10;99.90
20534;DHT22;12929;56.822;26.056;2023-11-21T07:39:42;-6.10;99.90
20534;DHT22;12929;56.822;26.056;2023-11-21T07:42:10;-6.10;99.90
20534;DHT22;12929;56.822;26.056;2023-11-21T07:44:38;-6.00;99.90
20534;DHT22;12929;56.822;26.056;2023-11-21T07:47:06;-6.10;99.90
20534;DHT22;12929;56.822;26.056;2023-11-21T07:49:34;-6.10;99.90
20534;DHT22;12929;56.822;26.056;2023-11-21T07:52:01;-6.00;99.90
20534;DHT22;12929;56.822;26.056;2023-11-21T07:54:29;-6.00;99.90
20534;DHT22;12929;56.822;26.056;2023-11-21T07:56:57;-6.00;99.90
20534;DHT22;12929;56.822;26.056;2023-11-21T07:59:25;-5.80;99.90
20534;DHT22;12929;56.822;26.056;2023-11-21T08:01:53;-5.70;99.90
20534;DHT22;12929;56.822;26.056;2023-11-21T08:04:23;-5.80;99.90
20534;DHT22;12929;56.822;26.056;2023-11-21T08:06:51;-5.80;99.90
20534;DHT22;12929;56.822;26.056;2023-11-21T08:09:18;-5.70;99.90
20534;DHT22;12929;56.822;26.056;2023-11-21T08:11:46;-5.60;99.90
20534;DHT22;12929;56.822;26.056;2023-11-21T08:14:14;-5.70;99.90
20534;DHT22;12929;56.822;26.056;2023-11-21T08:16:42;-5.70;99.90
20534;DHT22;12929;56.822;26.056;2023-11-21T08:19:10;-5.70;99.90
20534;DHT22;12929;56.822;26.056;2023-11-21T08:21:38;-5.60;99.90
20534;DHT22;12929;56.822;26.056;2023-11-21T08:24:07;-5.50;99.90
20534;DHT22;12929;56.822;26.056;2023-11-21T08:26:38;-5.40;99.90
20534;DHT22;12929;56.822;26.056;2023-11-21T08:29:05;-5.40;99.90
20534;DHT22;12929;56.822;26.056;2023-11-21T08:31:34;-5.40;99.90
20534;DHT22;12929;56.822;26.056;2023-11-21T08:34:02;-5.40;99.90
20534;DHT22;12929;56.822;26.056;2023-11-21T08:36:30;-5.30;99.90
20534;DHT22;12929;56.822;26.056;2023-11-21T08:38:59;-5.40;99.90
20534;DHT22;12929;56.822;26.056;2023-11-21T08:41:26;-5.40;99.90
20534;DHT22;12929;56.822;26.056;2023-11-21T08:43:55;-5.50;99.90
20534;DHT22;12929;56.822;26.056;2023-11-21T08:46:23;-5.50;99.90
20534;DHT22;12929;56.822;26.056;2023-11-21T08:48:53;-5.40;99.90
20534;DHT22;12929;56.822;26.056;2023-11-21T08:51:21;-5.30;99.90
20534;DHT22;12929;56.822;26.056;2023-11-21T08:53:48;-5.20;99.90
20534;DHT22;12929;56.822;26.056;2023-11-21T08:56:16;-5.20;99.90
20534;DHT22;12929;56.822;26.056;2023-11-21T08:58:46;-5.20;99.90
20534;DHT22;12929;56.822;26.056;2023-11-21T09:01:17;-5.20;99.90
20534;DHT22;12929;56.822;26.056;2023-11-21T09:03:45;-5.20;99.90
20534;DHT22;12929;56.822;26.056;2023-11-21T09:06:13;-5.30;99.90
20534;DHT22;12929;56.822;26.056;2023-11-21T09:08:41;-5.40;99.90
20534;DHT22;12929;56.822;26.056;2023-11-21T09:11:09;-5.50;99.90
20534;DHT22;12929;56.822;26.056;2023-11-21T09:13:37;-5.50;99.90
20534;DHT22;12929;56.822;26.056;2023-11-21T09:16:05;-5.30;99.90
20534;DHT22;12929;56.822;26.056;2023-11-21T09:18:33;-5.30;99.90
20534;DHT22;12929;56.822;26.056;2023-11-21T09:21:00;-5.30;99.90
20534;DHT22;12929;56.822;26.056;2023-11-21T09:23:28;-5.20;99.90
20534;DHT22;12929;56.822;26.056;2023-11-21T09:25:56;-5.10;99.90
20534;DHT22;12929;56.822;26.056;2023-11-21T09:28:25;-5.20;99.90
20534;DHT22;12929;56.822;26.056;2023-11-21T09:30:54;-5.30;99.90
20534;DHT22;12929;56.822;26.056;2023-11-21T09:33:22;-5.40;99.90
20534;DHT22;12929;56.822;26.056;2023-11-21T09:35:52;-5.40;99.90
20534;DHT22;12929;56.822;26.056;2023-11-21T09:38:20;-5.40;99.90
20534;DHT22;12929;56.822;26.056;2023-11-21T09:40:48;-5.30;99.90
20534;DHT22;12929;56.822;26.056;2023-11-21T09:43:18;-5.20;99.90
20534;DHT22;12929;56.822;26.056;2023-11-21T09:46:00;-5.20;99.90
20534;DHT22;12929;56.822;26.056;2023-11-21T09:48:30;-5.10;99.90
20534;DHT22;12929;56.822;26.056;2023-11-21T09:51:00;-5.00;99.90
20534;DHT22;12929;56.822;26.056;2023-11-21T09:53:30;-4.90;99.90
20534;DHT22;12929;56.822;26.056;2023-11-21T09:55:59;-4.90;99.90
20534;DHT22;12929;56.822;26.056;2023-11-21T09:58:29;-4.90;99.90
20534;DHT22;12929;56.822;26.056;2023-11-21T10:00:59;-4.80;99.90
20534;DHT22;12929;56.822;26.056;2023-11-21T10:03:30;-4.80;99.90
20534;DHT22;12929;56.822;26.056;2023-11-21T10:05:59;-4.80;99.90
20534;DHT22;12929;56.822;26.056;2023-11-21T10:08:28;-4.70;99.90
20534;DHT22;12929;56.822;26.056;2023-11-21T10:11:17;-4.80;99.90
20534;DHT22;12929;56.822;26.056;2023-11-21T10:13:46;-4.80;99.90
20534;DHT22;12929;56.822;26.056;2023-11-21T10:16:19;-4.80;99.90
20534;DHT22;12929;56.822;26.056;2023-11-21T10:18:52;-4.80;99.90
20534;DHT22;12929;56.822;26.056;2023-11-21T10:21:38;-4.70;99.90
20534;DHT22;12929;56.822;26.056;2023-11-21T10:24:09;-4.60;99.90
20534;DHT22;12929;56.822;26.056;2023-11-21T10:26:38;-4.70;99.90
20534;DHT22;12929;56.822;26.056;2023-11-21T10:29:19;-4.80;99.90
20534;DHT22;12929;56.822;26.056;2023-11-21T10:31:52;-4.90;99.90
20534;DHT22;12929;56.822;26.056;2023-11-21T10:34:27;-4.90;99.90
20534;DHT22;12929;56.822;26.056;2023-11-21T10:37:00;-4.90;99.90
20534;DHT22;12929;56.822;26.056;2023-11-21T10:39:40;-4.90;99.90
20534;DHT22;12929;56.822;26.056;2023-11-21T10:42:09;-4.80;99.90
20534;DHT22;12929;56.822;26.056;2023-11-21T10:44:41;-4.80;99.90
20534;DHT22;12929;56.822;26.056;2023-11-21T10:47:14;-4.80;99.90
20534;DHT22;12929;56.822;26.056;2023-11-21T10:49:48;-4.70;99.90
20534;DHT22;12929;56.822;26.056;2023-11-21T10:52:19;-4.70;99.90
20534;DHT22;12929;56.822;26.056;2023-11-21T10:54:50;-4.60;99.90
20534;DHT22;12929;56.822;26.056;2023-11-21T10:57:18;-4.50;99.90
20534;DHT22;12929;56.822;26.056;2023-11-21T10:59:49;-4.50;99.90
20534;DHT22;12929;56.822;26.056;2023-11-21T11:02:25;-4.50;99.90
20534;DHT22;12929;56.822;26.056;2023-11-21T11:05:02;-4.40;99.90
20534;DHT22;12929;56.822;26.056;2023-11-21T11:07:32;-4.50;99.90
20534;DHT22;12929;56.822;26.056;2023-11-21T11:10:04;-4.60;99.90
20534;DHT22;12929;56.822;26.056;2023-11-21T11:12:34;-4.50;99.90
20534;DHT22;12929;56.822;26.056;2023-11-21T11:15:04;-4.60;99.90
20534;DHT22;12929;56.822;26.056;2023-11-21T11:17:34;-4.60;99.90
20534;DHT22;12929;56.822;26.056;2023-11-21T11:20:04;-4.60;99.90
20534;DHT22;12929;56.822;26.056;2023-11-21T11:28:21;-4.40;99.90
20534;DHT22;12929;56.822;26.056;2023-11-21T11:31:00;-4.40;99.90
20534;DHT22;12929;56.822;26.056;2023-11-21T11:36:41;-4.50;99.90
20534;DHT22;12929;56.822;26.056;2023-11-21T11:39:35;-4.40;99.90
20534;DHT22;12929;56.822;26.056;2023-11-21T11:42:06;-4.40;99.90
20534;DHT22;12929;56.822;26.056;2023-11-21T11:47:22;-4.30;99.90
20534;DHT22;12929;56.822;26.056;2023-11-21T11:50:07;-4.30;99.90
20534;DHT22;12929;56.822;26.056;2023-11-21T11:52:43;-4.30;99.90
20534;DHT22;12929;56.822;26.056;2023-11-21T11:55:13;-4.20;99.90
20534;DHT22;12929;56.822;26.056;2023-11-21T11:57:41;-4.30;99.90
20534;DHT22;12929;56.822;26.056;2023-11-21T12:00:39;-4.20;99.90
20534;DHT22;12929;56.822;26.056;2023-11-21T12:03:09;-4.20;99.90
20534;DHT22;12929;56.822;26.056;2023-11-21T12:05:37;-4.20;99.90
20534;DHT22;12929;56.822;26.056;2023-11-21T12:08:09;-4.10;99.90
20534;DHT22;12929;56.822;26.056;2023-11-21T12:10:38;-4.20;99.90
20534;DHT22;12929;56.822;26.056;2023-11-21T12:13:10;-4.20;99.90
20534;DHT22;12929;56.822;26.056;2023-11-21T12:15:40;-4.20;99.90
20534;DHT22;12929;56.822;26.056;2023-11-21T12:18:09;-4.10;99.90
20534;DHT22;12929;56.822;26.056;2023-11-21T12:20:37;-4.10;99.90
20534;DHT22;12929;56.822;26.056;2023-11-21T12:23:08;-4.10;99.90
20534;DHT22;12929;56.822;26.056;2023-11-21T12:25:42;-4.10;99.90
20534;DHT22;12929;56.822;26.056;2023-11-21T12:28:10;-4.20;99.90
20534;DHT22;12929;56.822;26.056;2023-11-21T12:30:39;-4.10;99.90
20534;DHT22;12929;56.822;26.056;2023-11-21T12:33:07;-4.10;99.90
20534;DHT22;12929;56.822;26.056;2023-11-21T12:35:37;-4.10;99.90
20534;DHT22;12929;56.822;26.056;2023-11-21T12:38:05;-4.10;99.90
20534;DHT22;12929;56.822;26.056;2023-11-21T12:40:33;-4.10;99.90
20534;DHT22;12929;56.822;26.056;2023-11-21T12:43:01;-4.10;99.90
20534;DHT22;12929;56.822;26.056;2023-11-21T12:45:32;-4.00;99.90
20534;DHT22;12929;56.822;26.056;2023-11-21T12:48:02;-4.00;99.90
20534;DHT22;12929;56.822;26.056;2023-11-21T12:50:36;-3.90;99.90
20534;DHT22;12929;56.822;26.056;2023-11-21T12:53:07;-3.90;99.90
20534;DHT22;12929;56.822;26.056;2023-11-21T12:55:40;-3.90;99.90
20534;DHT22;12929;56.822;26.056;2023-11-21T12:58:10;-3.90;99.90
20534;DHT22;12929;56.822;26.056;2023-11-21T13:00:46;-3.90;99.90
20534;DHT22;12929;56.822;26.056;2023-11-21T13:03:15;-3.80;99.90
20534;DHT22;12929;56.822;26.056;2023-11-21T13:05:47;-3.80;99.90
20534;DHT22;12929;56.822;26.056;2023-11-21T13:08:22;-3.90;99.90
20534;DHT22;12929;56.822;26.056;2023-11-21T13:10:54;-3.80;99.90
20534;DHT22;12929;56.822;26.056;2023-11-21T13:13:23;-3.80;99.90
20534;DHT22;12929;56.822;26.056;2023-11-21T13:15:56;-3.90;99.90
20534;DHT22;12929;56.822;26.056;2023-11-21T13:18:25;-3.80;99.90
20534;DHT22;12929;56.822;26.056;2023-11-21T13:20:59;-3.80;99.90
20534;DHT22;12929;56.822;26.056;2023-11-21T13:23:27;-3.80;99.90
20534;DHT22;12929;56.822;26.056;2023-11-21T13:25:56;-3.90;99.90
20534;DHT22;12929;56.822;26.056;2023-11-21T13:28:33;-3.90;99.90
20534;DHT22;12929;56.822;26.056;2023-11-21T13:31:04;-3.90;99.90
20534;DHT22;12929;56.822;26.056;2023-11-21T13:33:53;-3.90;99.90
20534;DHT22;12929;56.822;26.056;2023-11-21T13:36:26;-3.80;99.90
20534;DHT22;12929;56.822;26.056;2023-11-21T13:38:57;-3.80;99.90
20534;DHT22;12929;56.822;26.056;2023-11-21T13:41:26;-3.80;99.90
20534;DHT22;12929;56.822;26.056;2023-11-21T13:43:59;-3.70;99.90
20534;DHT22;12929;56.822;26.056;2023-11-21T13:46:39;-3.80;99.90
20534;DHT22;12929;56.822;26.056;2023-11-21T13:49:08;-3.90;99.90
20534;DHT22;12929;56.822;26.056;2023-11-21T13:51:39;-4.00;99.90
20534;DHT22;12929;56.822;26.056;2023-11-21T13:54:13;-4.00;99.90
20534;DHT22;12929;56.822;26.056;2023-11-21T13:56:41;-3.90;99.90
20534;DHT22;12929;56.822;26.056;2023-11-21T13:59:12;-4.00;99.90
20534;DHT22;12929;56.822;26.056;2023-11-21T14:01:51;-3.90;99.90
20534;DHT22;12929;56.822;26.056;2023-11-21T14:04:40;-3.90;99.90
20534;DHT22;12929;56.822;26.056;2023-11-21T14:07:24;-3.70;99.90
20534;DHT22;12929;56.822;26.056;2023-11-21T14:10:04;-3.80;99.90
20534;DHT22;12929;56.822;26.056;2023-11-21T14:12:40;-3.70;99.90
20534;DHT22;12929;56.822;26.056;2023-11-21T14:15:10;-3.70;99.90
20534;DHT22;12929;56.822;26.056;2023-11-21T14:17:39;-3.70;99.90
20534;DHT22;12929;56.822;26.056;2023-11-21T14:20:09;-3.70;99.90
20534;DHT22;12929;56.822;26.056;2023-11-21T14:22:44;-3.70;99.90
20534;DHT22;12929;56.822;26.056;2023-11-21T14:25:12;-3.70;99.90
20534;DHT22;12929;56.822;26.056;2023-11-21T14:27:41;-3.70;99.90
20534;DHT22;12929;56.822;26.056;2023-11-21T14:30:09;-3.60;99.90
20534;DHT22;12929;56.822;26.056;2023-11-21T14:32:39;-3.60;99.90
20534;DHT22;12929;56.822;26.056;2023-11-21T14:35:07;-3.70;99.90
20534;DHT22;12929;56.822;26.056;2023-11-21T14:37:36;-3.60;99.90
20534;DHT22;12929;56.822;26.056;2023-11-21T14:40:04;-3.70;99.90
20534;DHT22;12929;56.822;26.056;2023-11-21T14:42:34;-3.70;99.90
20534;DHT22;12929;56.822;26.056;2023-11-21T14:45:05;-3.70;99.90
20534;DHT22;12929;56.822;26.056;2023-11-21T14:47:34;-3.60;99.90
20534;DHT22;12929;56.822;26.056;2023-11-21T14:50:02;-3.60;99.90
20534;DHT22;12929;56.822;26.056;2023-11-21T14:52:49;-3.60;99.90
20534;DHT22;12929;56.822;26.056;2023-11-21T14:55:27;-3.60;99.90
20534;DHT22;12929;56.822;26.056;2023-11-21T14:58:15;-3.60;99.90
20534;DHT22;12929;56.822;26.056;2023-11-21T15:00:47;-3.60;99.90
20534;DHT22;12929;56.822;26.056;2023-11-21T15:03:15;-3.50;99.90
20534;DHT22;12929;56.822;26.056;2023-11-21T15:06:10;-3.60;99.90
20534;DHT22;12929;56.822;26.056;2023-11-21T15:08:54;-3.50;99.90
20534;DHT22;12929;56.822;26.056;2023-11-21T15:11:42;-3.50;99.90
20534;DHT22;12929;56.822;26.056;2023-11-21T15:14:10;-3.60;99.90
20534;DHT22;12929;56.822;26.056;2023-11-21T15:16:40;-3.60;99.90
20534;DHT22;12929;56.822;26.056;2023-11-21T15:19:11;-3.50;99.90
20534;DHT22;12929;56.822;26.056;2023-11-21T15:21:45;-3.50;99.90
20534;DHT22;12929;56.822;26.056;2023-11-21T15:24:13;-3.50;99.90
20534;DHT22;12929;56.822;26.056;2023-11-21T15:26:41;-3.50;99.90
20534;DHT22;12929;56.822;26.056;2023-11-21T15:29:08;-3.50;99.90
20534;DHT22;12929;56.822;26.056;2023-11-21T15:31:36;-3.50;99.90
20534;DHT22;12929;56.822;26.056;2023-11-21T15:34:05;-3.50;99.90
20534;DHT22;12929;56.822;26.056;2023-11-21T15:36:34;-3.50;99.90
20534;DHT22;12929;56.822;26.056;2023-11-21T15:39:02;-3.50;99.90
20534;DHT22;12929;56.822;26.056;2023-11-21T15:41:30;-3.60;99.90
20534;DHT22;12929;56.822;26.056;2023-11-21T15:43:57;-3.60;99.90